Time;durP1;ratioP1;P1;durP2;ratioP2;P2;SDS_P1;SDS_P2;PMS_P1;PMS_P2;Temp;Humidity;BMP_temperature;BMP_pressure;BME280_temperature;BME280_humidity;BME280_pressure;Samples;Min_cycle;Max_cycle;Signal;HPM_P1;HPM_P2
2021/06/10 00:00:57;;;;;;;1.77;0.60;;;21.40;97.30;;;;;;5017845;28;20260;-94
2021/06/10 00:03:28;;;;;;;1.33;0.50;;;21.40;97.20;;;;;;5017959;28;20295;-94
2021/06/10 00:05:59;;;;;;;1.40;0.50;;;21.70;97.80;;;;;;5018376;28;20332;-94
2021/06/10 00:08:34;;;;;;;2.43;0.73;;;21.70;98.20;;;;;;5018786;28;20204;-93
2021/06/10 00:11:06;;;;;;;1.10;0.50;;;22.00;98.40;;;;;;5018382;28;20249;-93
2021/06/10 00:13:37;;;;;;;0.57;0.40;;;21.70;98.20;;;;;;5017811;28;20284;-93
2021/06/10 00:16:10;;;;;;;1.57;0.47;;;22.10;98.10;;;;;;5020654;28;20576;-93
2021/06/10 00:18:41;;;;;;;0.70;0.47;;;22.30;97.70;;;;;;5003409;28;20558;-94
2021/06/10 00:21:12;;;;;;;2.40;0.50;;;22.40;97.50;;;;;;5019448;28;20269;-93
2021/06/10 00:23:43;;;;;;;1.17;0.30;;;22.30;96.60;;;;;;5029189;28;20228;-93
2021/06/10 00:26:13;;;;;;;0.77;0.27;;;22.00;97.50;;;;;;5020746;28;20322;-93
2021/06/10 00:28:44;;;;;;;1.40;0.40;;;22.00;98.30;;;;;;5038689;28;20189;-92
2021/06/10 00:31:17;;;;;;;0.40;0.40;;;21.60;96.40;;;;;;5033264;28;20212;-93
2021/06/10 00:33:48;;;;;;;0.83;0.40;;;21.30;97.40;;;;;;5022936;28;20186;-86
2021/06/10 00:36:18;;;;;;;1.03;0.40;;;21.30;97.70;;;;;;5013199;28;20206;-87
2021/06/10 00:38:48;;;;;;;0.97;0.27;;;21.40;96.10;;;;;;5026351;28;20243;-93
2021/06/10 00:41:19;;;;;;;1.20;0.50;;;21.50;98.40;;;;;;5031060;28;20218;-94
2021/06/10 00:43:51;;;;;;;0.40;0.40;;;21.30;96.40;;;;;;5028406;28;20241;-93
2021/06/10 00:46:24;;;;;;;1.23;0.50;;;21.40;96.10;;;;;;5034909;28;20210;-94
2021/06/10 00:48:54;;;;;;;1.23;0.40;;;21.90;96.00;;;;;;5027850;28;20202;-93
2021/06/10 00:51:24;;;;;;;0.50;0.30;;;22.30;96.70;;;;;;5026030;28;20213;-93
2021/06/10 00:53:56;;;;;;;1.60;0.40;;;22.90;95.50;;;;;;5021561;28;20240;-93
2021/06/10 00:56:27;;;;;;;0.70;0.50;;;23.30;95.40;;;;;;5017402;28;20529;-94
2021/06/10 00:58:58;;;;;;;0.87;0.40;;;24.10;95.80;;;;;;5017368;28;20248;-95
2021/06/10 01:01:33;;;;;;;0.63;0.30;;;24.40;95.10;;;;;;5017047;28;20669;-94
2021/06/10 01:04:04;;;;;;;0.80;0.40;;;25.00;94.10;;;;;;5017399;28;20213;-94
2021/06/10 01:06:45;;;;;;;0.97;0.40;;;24.90;93.00;;;;;;5018368;28;20277;-95
2021/06/10 01:09:23;;;;;;;1.80;0.50;;;24.50;91.10;;;;;;5018250;28;20288;-94
2021/06/10 01:12:00;;;;;;;1.23;0.50;;;23.80;92.80;;;;;;5003408;28;20213;-94
2021/06/10 01:14:37;;;;;;;1.53;0.40;;;23.60;92.10;;;;;;5017284;28;20210;-94
2021/06/10 01:17:11;;;;;;;0.70;0.40;;;23.40;92.50;;;;;;5017949;28;20293;-93
2021/06/10 01:20:02;;;;;;;2.17;0.60;;;23.80;92.10;;;;;;5018937;28;20213;-96
2021/06/10 01:22:40;;;;;;;0.70;0.40;;;23.60;93.40;;;;;;5015843;28;20228;-93
2021/06/10 01:25:26;;;;;;;3.13;0.40;;;24.40;93.70;;;;;;5028154;28;20225;-94
2021/06/10 01:28:02;;;;;;;1.23;0.50;;;23.70;94.50;;;;;;5024720;28;20229;-93
2021/06/10 01:30:37;;;;;;;1.27;0.50;;;24.60;94.10;;;;;;5025445;28;20212;-94
2021/06/10 01:33:12;;;;;;;2.10;0.40;;;24.50;93.90;;;;;;5015484;28;20225;-92
2021/06/10 01:35:46;;;;;;;2.00;0.40;;;24.60;94.00;;;;;;5009929;28;20237;-94
2021/06/10 01:38:17;;;;;;;2.40;0.63;;;24.90;93.80;;;;;;5016418;28;20229;-91
2021/06/10 01:46:45;;;;;;;4.57;0.90;;;24.40;95.30;;;;;;5739935;23;20233;-92
2021/06/10 01:49:18;;;;;;;1.57;0.70;;;24.90;95.80;;;;;;5027095;28;20244;-96
2021/06/10 01:52:03;;;;;;;2.77;0.60;;;25.00;95.10;;;;;;5031366;28;20554;-96
2021/06/10 01:54:45;;;;;;;2.23;0.50;;;23.80;95.80;;;;;;5006381;28;20224;-96
2021/06/10 01:57:18;;;;;;;1.70;0.50;;;23.50;95.70;;;;;;5020656;28;20730;-96
2021/06/10 01:59:57;;;;;;;0.97;0.33;;;22.60;96.50;;;;;;5020899;28;20209;-96
2021/06/10 02:02:41;;;;;;;1.67;0.60;;;22.40;97.70;;;;;;5022261;28;20237;-96
2021/06/10 02:05:20;;;;;;;2.07;0.90;;;22.70;97.70;;;;;;5022864;28;20229;-96
2021/06/10 02:07:53;;;;;;;1.57;0.80;;;22.70;98.60;;;;;;5020667;28;20217;-96
2021/06/10 02:10:30;;;;;;;1.43;0.70;;;22.80;98.30;;;;;;5005996;28;20213;-96
2021/06/10 02:13:03;;;;;;;1.33;0.60;;;23.10;98.30;;;;;;5002090;28;20210;-96
2021/06/10 02:15:36;;;;;;;2.93;1.00;;;23.30;98.00;;;;;;5018437;28;20264;-96
2021/06/10 02:31:35;;;;;;;1.00;0.53;;;23.70;97.50;;;;;;6185149;22;1345340;-96
2021/06/10 02:34:13;;;;;;;5.27;0.77;;;22.50;97.80;;;;;;6267889;23;20201;-96
2021/06/10 02:36:52;;;;;;;1.73;0.70;;;21.10;98.90;;;;;;6241632;23;20174;-96
2021/06/10 02:42:26;;;;;;;2.07;0.70;;;20.00;99.80;;;;;;6258636;23;20175;-96
2021/06/10 02:44:58;;;;;;;1.23;0.60;;;19.50;99.90;;;;;;6258844;23;20199;-96
2021/06/10 02:47:31;;;;;;;3.33;0.80;;;18.90;99.90;;;;;;6232554;23;20174;-96
2021/06/10 02:50:03;;;;;;;1.40;0.60;;;18.50;99.90;;;;;;6276773;23;20190;-96
2021/06/10 02:52:36;;;;;;;1.63;0.67;;;18.20;99.90;;;;;;6280662;22;20163;-96
2021/06/10 02:55:09;;;;;;;1.47;0.40;;;17.90;99.90;;;;;;6279079;22;20176;-96
2021/06/10 02:57:41;;;;;;;0.77;0.40;;;17.50;99.90;;;;;;6261433;23;20198;-96
2021/06/10 03:00:14;;;;;;;0.97;0.60;;;17.30;99.90;;;;;;6259145;23;20230;-96
2021/06/10 03:02:49;;;;;;;2.00;0.60;;;17.10;99.90;;;;;;6260275;23;20175;-96
2021/06/10 03:05:22;;;;;;;1.50;0.40;;;16.90;99.90;;;;;;6264907;23;20175;-96
2021/06/10 03:07:53;;;;;;;1.60;0.63;;;16.70;99.90;;;;;;6262133;23;20186;-96
2021/06/10 03:10:27;;;;;;;2.03;0.70;;;16.60;99.90;;;;;;6260189;23;20622;-96
2021/06/10 03:12:59;;;;;;;2.33;0.70;;;16.60;99.90;;;;;;6264049;23;20167;-96
2021/06/10 03:15:32;;;;;;;3.00;0.70;;;16.50;99.90;;;;;;6261698;23;20179;-96
2021/06/10 03:18:08;;;;;;;1.53;0.70;;;16.50;99.90;;;;;;6263758;23;20164;-96
2021/06/10 03:20:41;;;;;;;0.80;0.40;;;16.30;99.90;;;;;;6265501;23;20195;-96
2021/06/10 03:23:14;;;;;;;1.10;0.60;;;16.30;99.90;;;;;;6237642;23;20206;-96
2021/06/10 03:25:47;;;;;;;2.23;0.73;;;16.20;99.90;;;;;;6262727;23;20240;-96
2021/06/10 03:28:18;;;;;;;2.03;0.77;;;16.10;99.90;;;;;;6265932;23;20151;-96
2021/06/10 03:30:48;;;;;;;0.97;0.57;;;16.00;99.90;;;;;;6260582;23;20191;-96
2021/06/10 03:33:22;;;;;;;1.90;0.80;;;16.00;99.90;;;;;;6251320;23;20179;-95
2021/06/10 03:35:56;;;;;;;0.87;0.60;;;15.90;99.90;;;;;;6251915;23;20199;-96
2021/06/10 03:38:28;;;;;;;1.07;0.60;;;15.70;99.90;;;;;;6249917;23;20195;-96
2021/06/10 03:41:00;;;;;;;1.47;0.60;;;15.60;99.90;;;;;;6249560;23;20673;-95
2021/06/10 03:43:32;;;;;;;2.83;0.70;;;15.50;99.90;;;;;;6223676;23;20179;-94
2021/06/10 03:46:06;;;;;;;1.13;0.53;;;15.50;99.90;;;;;;6249526;23;20249;-96
2021/06/10 03:48:41;;;;;;;1.63;0.63;;;15.40;99.90;;;;;;6249898;23;20234;-95
2021/06/10 03:51:14;;;;;;;2.70;0.80;;;15.30;99.90;;;;;;6221742;23;20186;-96
2021/06/10 03:53:46;;;;;;;1.37;0.70;;;15.30;99.90;;;;;;6249627;23;20176;-95
2021/06/10 03:56:17;;;;;;;1.67;0.80;;;15.10;99.90;;;;;;6250318;23;20255;-95
2021/06/10 03:58:48;;;;;;;1.10;0.63;;;15.00;99.90;;;;;;6224096;23;20171;-95
2021/06/10 04:01:19;;;;;;;1.13;0.80;;;15.00;99.90;;;;;;6248398;23;20203;-94
2021/06/10 04:03:52;;;;;;;2.00;0.80;;;14.90;99.90;;;;;;6251329;23;20199;-90
2021/06/10 04:06:29;;;;;;;2.03;0.77;;;14.90;99.90;;;;;;6250140;23;20172;-95
2021/06/10 04:09:02;;;;;;;0.97;0.67;;;14.80;99.90;;;;;;6249447;23;20314;-94
2021/06/10 04:11:32;;;;;;;2.17;0.80;;;14.80;99.90;;;;;;6253116;23;20175;-95
2021/06/10 04:14:16;;;;;;;0.83;0.50;;;14.70;99.90;;;;;;6250584;23;20180;-95
2021/06/10 04:16:47;;;;;;;0.97;0.60;;;14.60;99.90;;;;;;6250052;23;20637;-95
2021/06/10 04:19:19;;;;;;;1.63;0.73;;;14.50;99.90;;;;;;6251590;23;20618;-95
2021/06/10 04:21:50;;;;;;;1.10;0.53;;;14.50;99.90;;;;;;6222960;23;20559;-95
2021/06/10 04:24:20;;;;;;;1.77;0.80;;;14.40;99.90;;;;;;6249031;23;20574;-95
2021/06/10 04:26:52;;;;;;;1.23;0.50;;;14.40;99.90;;;;;;6249617;23;20194;-95
2021/06/10 04:29:23;;;;;;;1.80;0.70;;;14.30;99.90;;;;;;6249813;23;20179;-95
2021/06/10 04:31:56;;;;;;;1.50;0.63;;;14.20;99.90;;;;;;6252058;23;20234;-94
2021/06/10 04:34:30;;;;;;;1.77;0.47;;;14.10;99.90;;;;;;6261108;23;20251;-94
2021/06/10 04:37:01;;;;;;;0.87;0.70;;;14.00;99.90;;;;;;6259547;23;20183;-95
2021/06/10 04:39:32;;;;;;;0.90;0.70;;;13.90;99.90;;;;;;6234889;23;20175;-96
2021/06/10 04:42:03;;;;;;;0.83;0.53;;;13.80;99.90;;;;;;6259842;23;20194;-96
2021/06/10 04:44:34;;;;;;;1.10;0.50;;;13.80;99.90;;;;;;6261304;23;20176;-96
2021/06/10 04:47:05;;;;;;;1.60;0.57;;;13.80;99.90;;;;;;6257478;23;20187;-96
2021/06/10 04:49:38;;;;;;;0.87;0.50;;;13.70;99.90;;;;;;6224821;23;20179;-96
2021/06/10 04:52:09;;;;;;;0.77;0.40;;;13.60;99.90;;;;;;6223394;23;20229;-95
2021/06/10 04:54:40;;;;;;;3.47;0.60;;;13.50;99.90;;;;;;6249552;23;20187;-96
2021/06/10 04:57:12;;;;;;;1.30;0.60;;;13.40;99.90;;;;;;6249406;23;20176;-96
2021/06/10 04:59:43;;;;;;;1.73;0.50;;;13.40;99.90;;;;;;6222040;23;20496;-95
2021/06/10 05:02:13;;;;;;;0.63;0.50;;;13.40;99.90;;;;;;6249333;23;20634;-96
2021/06/10 05:04:46;;;;;;;3.67;1.20;;;13.40;99.90;;;;;;6249166;23;20202;-96
2021/06/10 05:07:17;;;;;;;5.10;1.80;;;13.30;99.90;;;;;;6249307;23;20230;-96
2021/06/10 05:09:48;;;;;;;1.23;0.70;;;13.20;99.90;;;;;;6250079;23;20191;-96
2021/06/10 05:12:18;;;;;;;1.87;0.80;;;13.20;99.90;;;;;;6254802;23;20191;-96
2021/06/10 05:14:50;;;;;;;1.93;0.70;;;13.00;99.90;;;;;;6267550;23;20172;-96
2021/06/10 05:17:21;;;;;;;0.63;0.40;;;13.00;99.90;;;;;;6266791;22;20186;-96
2021/06/10 05:19:55;;;;;;;1.77;0.80;;;13.00;99.90;;;;;;6258423;23;20203;-96
2021/06/10 05:22:25;;;;;;;1.03;0.70;;;12.90;99.90;;;;;;6253084;23;20176;-96
2021/06/10 05:24:58;;;;;;;1.37;0.63;;;12.90;99.90;;;;;;6249697;23;20234;-96
2021/06/10 05:27:30;;;;;;;2.60;0.50;;;12.90;99.90;;;;;;6250662;23;20187;-95
2021/06/10 05:30:01;;;;;;;1.13;0.60;;;12.70;99.90;;;;;;6248514;23;20234;-96
2021/06/10 05:32:32;;;;;;;0.97;0.80;;;12.70;99.90;;;;;;6249137;23;20176;-96
2021/06/10 05:35:09;;;;;;;0.90;0.60;;;12.60;99.90;;;;;;6249553;23;20167;-96
2021/06/10 05:37:40;;;;;;;1.33;0.50;;;12.60;99.90;;;;;;6248787;23;20175;-96
2021/06/10 05:40:12;;;;;;;0.87;0.50;;;12.60;99.90;;;;;;6249361;23;20180;-96
2021/06/10 05:42:43;;;;;;;0.53;0.40;;;12.50;99.90;;;;;;6249485;23;20203;-96
2021/06/10 05:45:16;;;;;;;0.67;0.40;;;12.50;99.90;;;;;;6249399;23;20175;-95
2021/06/10 05:47:47;;;;;;;1.30;0.47;;;12.50;99.90;;;;;;6250348;23;20203;-96
2021/06/10 05:50:20;;;;;;;1.60;0.50;;;12.50;99.90;;;;;;6249660;23;20203;-96
2021/06/10 05:52:51;;;;;;;0.90;0.70;;;12.40;99.90;;;;;;6251485;23;20164;-95
2021/06/10 05:55:22;;;;;;;4.13;0.57;;;12.40;99.90;;;;;;6251268;23;20183;-96
2021/06/10 05:57:53;;;;;;;1.73;0.53;;;12.40;99.90;;;;;;6254393;23;20182;-94
2021/06/10 06:00:24;;;;;;;2.37;0.47;;;12.40;99.90;;;;;;6271449;22;20190;-95
2021/06/10 06:02:56;;;;;;;1.13;0.50;;;12.30;99.90;;;;;;6272247;22;20175;-95
2021/06/10 06:05:29;;;;;;;0.87;0.43;;;12.30;99.90;;;;;;6272352;22;20200;-95
2021/06/10 06:08:00;;;;;;;0.87;0.50;;;12.30;99.90;;;;;;6246074;23;20183;-96
2021/06/10 06:10:32;;;;;;;1.13;0.40;;;12.30;99.90;;;;;;6267510;23;20203;-96
2021/06/10 06:13:04;;;;;;;0.60;0.53;;;12.20;99.90;;;;;;6249852;23;20258;-96
2021/06/10 06:15:35;;;;;;;1.30;0.60;;;12.20;99.90;;;;;;6249130;23;20183;-96
2021/06/10 06:18:06;;;;;;;0.60;0.50;;;12.20;99.90;;;;;;6226197;23;20183;-95
2021/06/10 06:20:43;;;;;;;1.20;0.50;;;12.10;99.90;;;;;;6249213;23;20198;-96
2021/06/10 06:23:16;;;;;;;0.87;0.50;;;12.10;99.90;;;;;;6250004;23;20183;-96
2021/06/10 06:25:47;;;;;;;4.13;0.60;;;12.10;99.90;;;;;;6225851;23;20175;-96
2021/06/10 06:28:18;;;;;;;1.87;0.80;;;12.10;99.90;;;;;;6251147;23;20202;-96
2021/06/10 06:30:48;;;;;;;1.40;0.63;;;12.10;99.90;;;;;;6248509;23;20211;-95
2021/06/10 06:33:22;;;;;;;2.73;0.70;;;12.10;99.90;;;;;;6248841;23;20603;-96
2021/06/10 06:35:55;;;;;;;1.23;0.60;;;12.20;99.90;;;;;;6248412;23;20226;-96
2021/06/10 06:38:25;;;;;;;0.50;0.40;;;12.10;99.90;;;;;;6247945;23;20202;-96
2021/06/10 06:40:56;;;;;;;2.53;1.13;;;12.20;99.90;;;;;;6246864;23;20251;-95
2021/06/10 06:43:30;;;;;;;2.17;0.90;;;12.20;99.90;;;;;;6249380;23;20168;-95
2021/06/10 06:46:02;;;;;;;1.23;0.70;;;12.20;99.90;;;;;;6248119;23;20582;-96
2021/06/10 06:48:33;;;;;;;0.60;0.60;;;12.20;99.90;;;;;;6247788;23;20258;-96
2021/06/10 06:51:09;;;;;;;1.30;0.80;;;12.30;99.90;;;;;;6246801;23;20206;-96
2021/06/10 06:53:39;;;;;;;1.27;0.60;;;12.30;99.90;;;;;;6222211;23;20194;-96
2021/06/10 06:56:23;;;;;;;2.00;1.10;;;12.30;99.90;;;;;;6247207;23;20180;-96
2021/06/10 06:58:55;;;;;;;3.13;0.80;;;12.40;99.90;;;;;;6222867;23;20182;-96
2021/06/10 07:01:26;;;;;;;1.10;0.80;;;12.40;99.90;;;;;;6246257;23;20176;-96
2021/06/10 07:03:56;;;;;;;1.27;0.97;;;12.50;99.90;;;;;;6248332;23;20681;-96
2021/06/10 07:06:29;;;;;;;2.17;0.80;;;12.40;99.90;;;;;;6249314;23;20595;-96
2021/06/10 07:09:00;;;;;;;1.17;0.80;;;12.50;99.90;;;;;;6249985;23;20210;-96
2021/06/10 07:11:35;;;;;;;0.97;0.53;;;12.50;99.90;;;;;;6248787;23;20282;-96
2021/06/10 07:14:06;;;;;;;2.60;0.80;;;12.40;99.90;;;;;;6249819;23;20202;-96
2021/06/10 07:16:37;;;;;;;1.07;0.63;;;12.40;99.90;;;;;;6224995;23;20202;-96
2021/06/10 07:19:08;;;;;;;2.77;1.10;;;12.40;99.90;;;;;;6253567;23;20180;-96
2021/06/10 07:21:51;;;;;;;2.60;1.10;;;12.30;99.90;;;;;;6271472;22;20164;-96
2021/06/10 07:24:45;;;;;;;2.03;1.10;;;12.30;99.90;;;;;;6273834;22;20172;-96
2021/06/10 07:27:17;;;;;;;3.50;1.13;;;12.40;99.90;;;;;;6248715;22;20169;-96
2021/06/10 07:29:48;;;;;;;2.17;0.97;;;12.50;99.90;;;;;;6273621;22;20186;-96
2021/06/10 07:32:20;;;;;;;4.00;0.97;;;12.50;99.90;;;;;;6272890;23;20203;-96
2021/06/10 07:34:51;;;;;;;3.63;0.97;;;12.50;99.90;;;;;;6274408;23;20180;-96
2021/06/10 07:37:24;;;;;;;2.03;0.93;;;12.50;99.90;;;;;;6274002;23;20175;-96
2021/06/10 07:39:55;;;;;;;1.70;0.80;;;12.40;99.90;;;;;;6262452;23;20562;-96
2021/06/10 07:42:27;;;;;;;2.67;0.90;;;12.40;99.90;;;;;;6251118;23;20206;-96
2021/06/10 07:44:57;;;;;;;3.07;0.97;;;12.50;99.90;;;;;;6249961;23;20195;-95
2021/06/10 07:47:28;;;;;;;1.87;0.97;;;12.40;99.90;;;;;;6250684;23;20696;-96
2021/06/10 07:50:00;;;;;;;2.70;0.70;;;12.40;99.90;;;;;;6248542;23;20191;-96
2021/06/10 07:52:34;;;;;;;1.20;0.60;;;12.50;99.90;;;;;;6252128;23;20219;-96
2021/06/10 07:55:07;;;;;;;0.97;0.50;;;12.50;99.90;;;;;;6251458;23;20195;-95
2021/06/10 07:57:38;;;;;;;1.40;0.60;;;12.50;99.90;;;;;;6225782;23;20223;-95
2021/06/10 08:00:10;;;;;;;4.17;1.00;;;12.50;99.90;;;;;;6251548;23;20227;-95
2021/06/10 08:02:43;;;;;;;0.97;0.80;;;12.40;99.90;;;;;;6249900;23;20186;-96
2021/06/10 08:05:16;;;;;;;2.77;0.80;;;12.40;99.90;;;;;;6249832;23;20171;-95
2021/06/10 08:07:49;;;;;;;1.37;0.70;;;12.40;99.90;;;;;;6249713;23;20164;-94
2021/06/10 08:10:21;;;;;;;1.03;0.60;;;12.40;99.90;;;;;;6249069;23;20164;-96
2021/06/10 08:12:52;;;;;;;1.27;0.50;;;12.40;99.90;;;;;;6249245;23;20192;-96
2021/06/10 08:15:24;;;;;;;3.20;0.50;;;12.40;99.90;;;;;;6249522;23;20171;-96
2021/06/10 08:17:55;;;;;;;2.87;0.70;;;12.40;99.90;;;;;;6249857;23;20214;-95
2021/06/10 08:20:28;;;;;;;1.37;0.60;;;12.40;99.90;;;;;;6221630;23;20175;-96
2021/06/10 08:23:01;;;;;;;3.23;0.50;;;12.40;99.90;;;;;;6248728;23;20224;-96
2021/06/10 08:25:34;;;;;;;1.57;0.60;;;12.30;99.90;;;;;;6221774;23;20168;-96
2021/06/10 08:28:05;;;;;;;2.10;0.70;;;12.30;99.90;;;;;;6252477;23;20184;-96
2021/06/10 08:30:36;;;;;;;2.50;0.70;;;12.20;99.90;;;;;;6247915;23;20230;-95
2021/06/10 08:33:07;;;;;;;1.63;0.60;;;12.30;99.90;;;;;;6249322;23;20175;-96
2021/06/10 08:35:38;;;;;;;1.40;0.50;;;12.30;99.90;;;;;;6249729;23;20194;-96
2021/06/10 08:38:11;;;;;;;1.87;0.67;;;12.30;99.90;;;;;;6250721;23;20190;-95
2021/06/10 08:40:42;;;;;;;2.20;0.70;;;12.30;99.90;;;;;;6224282;23;20511;-96
2021/06/10 08:43:14;;;;;;;3.50;0.70;;;12.30;99.90;;;;;;6251596;23;20250;-95
2021/06/10 08:45:47;;;;;;;2.43;0.60;;;12.30;99.90;;;;;;6252024;23;20179;-95
2021/06/10 08:48:19;;;;;;;0.93;0.60;;;12.20;99.90;;;;;;6254266;23;20168;-96
2021/06/10 08:50:51;;;;;;;1.23;0.33;;;12.20;99.90;;;;;;6259643;23;20176;-95
2021/06/10 08:53:24;;;;;;;2.03;0.80;;;12.20;99.90;;;;;;6260657;23;20577;-96
2021/06/10 08:55:56;;;;;;;3.30;0.60;;;12.20;99.90;;;;;;6185961;22;20189;-96
2021/06/10 08:58:29;;;;;;;1.23;0.53;;;12.20;99.90;;;;;;6141427;23;20216;-96
2021/06/10 09:01:01;;;;;;;4.50;0.80;;;12.20;99.90;;;;;;6109671;23;20178;-96
2021/06/10 09:03:34;;;;;;;1.93;0.63;;;12.20;99.90;;;;;;6159708;23;20253;-96
2021/06/10 09:06:07;;;;;;;1.50;0.60;;;12.20;99.90;;;;;;6158817;23;20185;-96
2021/06/10 09:08:42;;;;;;;5.53;1.00;;;12.20;99.90;;;;;;6159355;23;20635;-96
2021/06/10 09:11:15;;;;;;;2.10;0.70;;;12.20;99.90;;;;;;6157788;23;20185;-96
2021/06/10 09:13:48;;;;;;;1.77;0.60;;;12.10;99.90;;;;;;6133724;23;20232;-96
2021/06/10 09:16:24;;;;;;;2.77;0.77;;;12.10;99.90;;;;;;6158252;23;20181;-96
2021/06/10 09:19:01;;;;;;;2.33;0.50;;;12.10;99.90;;;;;;6158483;23;20234;-96
2021/06/10 09:21:41;;;;;;;2.37;0.67;;;12.10;99.90;;;;;;6157875;23;20225;-96
2021/06/10 09:24:35;;;;;;;3.97;0.57;;;12.00;99.90;;;;;;6159277;23;20249;-96
2021/06/10 09:27:08;;;;;;;1.00;0.70;;;12.10;99.90;;;;;;6156032;23;20181;-96
2021/06/10 09:29:42;;;;;;;1.27;0.50;;;12.10;99.90;;;;;;6165148;23;20173;-96
2021/06/10 09:32:16;;;;;;;2.30;0.60;;;12.10;99.90;;;;;;6163693;23;20538;-96
2021/06/10 09:34:52;;;;;;;2.80;0.80;;;12.10;99.90;;;;;;6171548;23;20177;-96
2021/06/10 09:37:30;;;;;;;1.63;0.60;;;12.10;99.90;;;;;;6171346;23;20177;-95
2021/06/10 09:40:06;;;;;;;1.87;0.40;;;12.10;99.90;;;;;;6170475;23;20185;-95
2021/06/10 09:42:39;;;;;;;2.53;0.60;;;12.00;99.90;;;;;;6177016;23;20181;-94
2021/06/10 09:45:12;;;;;;;1.40;0.80;;;12.10;99.90;;;;;;6182009;23;20187;-94
2021/06/10 09:47:45;;;;;;;1.30;0.67;;;12.10;99.90;;;;;;6182249;23;20185;-94
2021/06/10 09:50:21;;;;;;;1.37;0.70;;;12.20;99.90;;;;;;6178675;23;20181;-95
2021/06/10 09:52:54;;;;;;;1.20;0.80;;;12.20;99.90;;;;;;6182198;23;20219;-96
2021/06/10 09:55:33;;;;;;;0.97;0.53;;;12.10;99.90;;;;;;6182378;23;20193;-96
2021/06/10 09:58:28;;;;;;;2.27;0.83;;;12.10;99.90;;;;;;6150727;23;20204;-94
2021/06/10 10:01:01;;;;;;;1.27;0.70;;;12.00;99.90;;;;;;6143169;23;20166;-96
2021/06/10 10:03:42;;;;;;;4.03;0.90;;;12.00;99.90;;;;;;6137535;23;20774;-96
2021/06/10 10:06:19;;;;;;;0.97;0.60;;;12.00;99.90;;;;;;6131190;23;20249;-95
2021/06/10 10:08:53;;;;;;;1.20;0.80;;;12.00;99.90;;;;;;6129986;23;20166;-95
2021/06/10 10:11:27;;;;;;;2.10;0.70;;;12.00;99.90;;;;;;6106563;23;20215;-96
2021/06/10 10:13:59;;;;;;;2.80;0.70;;;12.00;99.90;;;;;;6129518;23;20198;-96
2021/06/10 10:16:32;;;;;;;2.17;0.97;;;11.90;99.90;;;;;;6129596;23;20201;-96
2021/06/10 10:19:04;;;;;;;2.07;0.83;;;11.90;99.90;;;;;;6129599;23;20185;-96
2021/06/10 10:21:36;;;;;;;2.13;0.60;;;11.90;99.90;;;;;;6131526;23;20170;-96
2021/06/10 10:24:09;;;;;;;3.70;1.17;;;11.90;99.90;;;;;;6128851;23;20261;-96
2021/06/10 10:26:41;;;;;;;2.97;0.70;;;11.90;99.90;;;;;;6128738;23;20178;-95
2021/06/10 10:29:13;;;;;;;3.93;0.90;;;11.90;99.90;;;;;;6128572;23;20254;-95
2021/06/10 10:31:45;;;;;;;2.63;0.77;;;11.90;99.90;;;;;;6127636;23;20715;-95
2021/06/10 10:34:24;;;;;;;3.13;1.00;;;11.90;99.90;;;;;;6129367;23;20198;-96
2021/06/10 10:36:57;;;;;;;2.23;0.90;;;11.90;99.90;;;;;;6128477;23;20563;-95
2021/06/10 10:39:33;;;;;;;2.33;0.90;;;11.80;99.90;;;;;;6105984;23;20829;-95
2021/06/10 10:42:07;;;;;;;1.53;0.70;;;11.70;99.90;;;;;;6128656;23;20178;-95
2021/06/10 10:44:39;;;;;;;1.30;0.70;;;11.70;99.90;;;;;;6129632;23;20205;-95
2021/06/10 10:47:11;;;;;;;2.10;0.80;;;11.60;99.90;;;;;;6129826;23;20170;-95
2021/06/10 10:49:47;;;;;;;2.00;0.80;;;11.60;99.90;;;;;;6130950;23;20163;-96
2021/06/10 10:52:36;;;;;;;1.40;0.90;;;11.50;99.90;;;;;;6132483;23;20226;-95
2021/06/10 10:55:18;;;;;;;1.67;0.73;;;11.50;99.90;;;;;;6131003;23;20198;-94
2021/06/10 10:58:00;;;;;;;1.90;0.90;;;11.50;99.90;;;;;;6157581;23;20201;-94
2021/06/10 11:00:50;;;;;;;2.97;0.90;;;11.50;99.90;;;;;;6154634;23;20181;-95
2021/06/10 11:03:31;;;;;;;1.97;0.90;;;11.50;99.90;;;;;;6161070;23;20181;-95
2021/06/10 11:06:37;;;;;;;4.33;0.80;;;11.50;99.90;;;;;;6160255;23;20230;-96
2021/06/10 11:09:14;;;;;;;1.67;0.80;;;11.50;99.90;;;;;;6136313;23;20212;-96
2021/06/10 11:11:56;;;;;;;2.10;0.90;;;11.60;99.90;;;;;;6159326;23;20205;-96
2021/06/10 11:14:47;;;;;;;2.77;0.80;;;11.50;99.90;;;;;;6160945;23;20166;-95
2021/06/10 11:17:25;;;;;;;3.13;0.80;;;11.60;99.90;;;;;;6160983;23;20203;-95
2021/06/10 11:20:02;;;;;;;1.73;0.80;;;11.60;99.90;;;;;;6160367;23;20177;-96
2021/06/10 11:22:41;;;;;;;0.63;0.63;;;11.70;99.90;;;;;;6155591;23;20228;-96
2021/06/10 11:25:15;;;;;;;1.50;0.70;;;11.70;99.90;;;;;;6161344;23;20197;-96
2021/06/10 11:27:49;;;;;;;2.03;0.90;;;11.70;99.90;;;;;;6164212;23;20174;-96
2021/06/10 11:30:28;;;;;;;0.90;0.67;;;11.80;99.90;;;;;;6163290;23;20239;-96
2021/06/10 11:33:05;;;;;;;3.60;0.80;;;11.80;99.90;;;;;;6183264;23;20189;-96
2021/06/10 11:35:42;;;;;;;2.50;0.90;;;11.80;99.90;;;;;;6183482;23;20158;-96
2021/06/10 11:38:16;;;;;;;2.03;0.70;;;11.70;99.90;;;;;;6183909;23;20164;-96
2021/06/10 11:40:48;;;;;;;3.43;0.90;;;11.70;99.90;;;;;;6158997;23;20160;-96
2021/06/10 11:43:21;;;;;;;1.37;0.67;;;11.70;99.90;;;;;;6183827;23;20161;-96
2021/06/10 11:46:01;;;;;;;2.10;0.80;;;11.70;99.90;;;;;;6183788;23;20158;-94
2021/06/10 11:48:39;;;;;;;1.63;0.93;;;11.70;99.90;;;;;;6141346;23;20261;-94
2021/06/10 11:51:18;;;;;;;2.73;0.80;;;11.70;99.90;;;;;;6160374;23;20173;-96
2021/06/10 11:53:49;;;;;;;2.87;0.80;;;11.70;99.90;;;;;;6160224;23;20193;-96
2021/06/10 11:56:26;;;;;;;2.07;0.60;;;11.60;99.90;;;;;;6159993;23;20181;-96
2021/06/10 11:59:03;;;;;;;2.27;0.90;;;11.60;99.90;;;;;;6135380;23;20532;-96
2021/06/10 12:01:37;;;;;;;1.83;0.80;;;11.60;99.90;;;;;;6161338;23;20174;-96
2021/06/10 12:04:10;;;;;;;1.33;0.70;;;11.60;99.90;;;;;;6159747;23;20177;-96
2021/06/10 12:06:40;;;;;;;3.73;1.20;;;11.50;99.90;;;;;;6160734;23;20595;-96
2021/06/10 12:09:14;;;;;;;4.13;1.00;;;11.50;99.90;;;;;;6176837;23;20181;-96
2021/06/10 12:11:50;;;;;;;4.07;0.90;;;11.50;99.90;;;;;;6181438;23;20181;-95
2021/06/10 12:14:21;;;;;;;2.33;0.80;;;11.50;99.90;;;;;;6179502;23;20285;-96
2021/06/10 12:17:02;;;;;;;3.37;0.93;;;11.50;99.90;;;;;;6167610;23;20177;-96
2021/06/10 12:19:32;;;;;;;1.70;0.77;;;11.50;99.90;;;;;;6166887;23;20663;-95
2021/06/10 12:22:04;;;;;;;1.20;0.80;;;11.50;99.90;;;;;;6162648;23;20301;-95
2021/06/10 12:24:42;;;;;;;2.07;0.90;;;11.50;99.90;;;;;;6134549;23;20204;-94
2021/06/10 12:27:15;;;;;;;1.87;0.90;;;11.50;99.90;;;;;;6134632;23;20178;-95
2021/06/10 12:29:52;;;;;;;6.47;1.63;;;11.40;99.90;;;;;;6162532;23;20177;-94
2021/06/10 12:32:30;;;;;;;1.87;1.00;;;11.40;99.90;;;;;;6161307;23;20256;-95
2021/06/10 12:35:00;;;;;;;1.60;0.80;;;11.40;99.90;;;;;;6159001;23;20178;-95
2021/06/10 12:37:31;;;;;;;1.90;0.70;;;11.40;99.90;;;;;;6159639;23;20633;-94
2021/06/10 12:40:02;;;;;;;2.10;0.77;;;11.40;99.90;;;;;;6158716;23;21107;-95
2021/06/10 12:42:32;;;;;;;1.83;0.90;;;11.40;99.90;;;;;;6158988;23;20201;-95
2021/06/10 12:45:03;;;;;;;3.67;0.73;;;11.40;99.90;;;;;;6158712;23;20177;-93
2021/06/10 12:47:36;;;;;;;4.20;1.00;;;11.50;99.90;;;;;;6159072;23;20510;-95
2021/06/10 12:50:20;;;;;;;4.53;1.07;;;11.50;99.90;;;;;;6157776;23;20311;-94
2021/06/10 12:52:51;;;;;;;2.90;0.90;;;11.50;99.90;;;;;;6159215;23;20201;-94
2021/06/10 12:55:29;;;;;;;1.57;0.97;;;11.40;99.90;;;;;;6158562;23;20181;-95
2021/06/10 12:58:00;;;;;;;2.40;0.90;;;11.40;99.90;;;;;;6158768;23;20208;-94
2021/06/10 13:00:36;;;;;;;2.60;0.80;;;11.50;99.90;;;;;;6158019;23;20185;-94
2021/06/10 13:03:09;;;;;;;0.60;0.60;;;11.50;99.90;;;;;;6158531;23;20209;-95
2021/06/10 13:05:42;;;;;;;2.60;0.80;;;11.50;99.90;;;;;;6158966;23;20597;-94
2021/06/10 13:08:13;;;;;;;3.00;0.80;;;11.50;99.90;;;;;;6160126;23;20177;-94
2021/06/10 13:10:45;;;;;;;1.80;0.60;;;11.50;99.90;;;;;;6163168;23;20178;-93
2021/06/10 13:13:31;;;;;;;2.33;0.70;;;11.60;99.90;;;;;;6157452;23;20237;-95
2021/06/10 13:16:04;;;;;;;1.10;0.70;;;11.50;99.90;;;;;;6159051;23;20213;-95
2021/06/10 13:18:36;;;;;;;3.03;0.90;;;11.50;99.90;;;;;;6159138;23;20177;-96
2021/06/10 13:21:18;;;;;;;3.13;0.90;;;11.30;99.90;;;;;;6158098;23;20174;-95
2021/06/10 13:23:51;;;;;;;2.63;1.00;;;11.20;99.90;;;;;;6158639;23;20177;-95
2021/06/10 13:26:25;;;;;;;4.93;1.10;;;11.10;99.90;;;;;;6158140;23;20225;-94
2021/06/10 13:29:03;;;;;;;2.20;0.80;;;11.20;99.90;;;;;;6159053;23;20196;-95
2021/06/10 13:31:38;;;;;;;3.27;1.10;;;11.30;99.90;;;;;;6159628;23;20569;-95
2021/06/10 13:34:15;;;;;;;1.10;0.67;;;11.50;99.90;;;;;;6162268;23;20201;-95
2021/06/10 13:36:54;;;;;;;1.57;1.00;;;11.70;99.90;;;;;;6177926;23;20189;-95
2021/06/10 13:39:25;;;;;;;4.50;1.07;;;11.70;99.90;;;;;;6181936;23;20173;-96
2021/06/10 13:41:56;;;;;;;1.20;0.70;;;11.80;99.90;;;;;;6181628;23;20193;-96
2021/06/10 13:44:28;;;;;;;2.80;0.70;;;11.90;99.90;;;;;;6179582;23;20181;-96